Time;durP1;ratioP1;P1;durP2;ratioP2;P2;SDS_P1;SDS_P2;PMS_P1;PMS_P2;Temp;Humidity;BMP_temperature;BMP_pressure;BME280_temperature;BME280_humidity;BME280_pressure;Samples;Min_cycle;Max_cycle;Signal;HPM_P1;HPM_P2
2023/08/16 02:00:56;;;;;;;4.22;3.87;;;;;;;;;;4827378;27;19970;-77
2023/08/16 02:03:23;;;;;;;11.75;5.00;;;;;;;;;;4312748;33;20056;-77
2023/08/16 02:05:49;;;;;;;5.28;4.12;;;;;;;;;;4325465;33;20519;-77
2023/08/16 02:08:15;;;;;;;7.85;4.65;;;;;;;;;;4323309;33;20066;-77
2023/08/16 02:10:41;;;;;;;11.40;5.03;;;;;;;;;;4325835;33;20509;-77
2023/08/16 02:13:07;;;;;;;4.97;4.32;;;;;;;;;;4294266;33;20098;-77
2023/08/16 02:15:34;;;;;;;8.82;3.75;;;;;;;;;;4295605;33;20049;-77
2023/08/16 02:18:01;;;;;;;6.35;4.57;;;;;;;;;;4294842;33;20053;-77
2023/08/16 02:20:27;;;;;;;6.05;4.35;;;;;;;;;;4294535;33;20211;-77
2023/08/16 02:22:54;;;;;;;4.40;4.10;;;;;;;;;;4294062;33;20049;-77
2023/08/16 02:25:20;;;;;;;10.93;4.95;;;;;;;;;;4295583;33;20029;-77
2023/08/16 02:27:46;;;;;;;12.68;5.03;;;;;;;;;;4287515;33;20057;-76
2023/08/16 02:30:12;;;;;;;8.60;4.53;;;;;;;;;;4281367;33;20152;-76
2023/08/16 02:32:38;;;;;;;11.00;5.00;;;;;;;;;;4286998;33;20053;-76
2023/08/16 02:35:04;;;;;;;8.98;4.25;;;;;;;;;;4279800;33;20116;-76
2023/08/16 02:37:37;;;;;;;12.73;4.60;;;;;;;;;;4280506;33;20097;-76
2023/08/16 02:40:04;;;;;;;8.75;4.68;;;;;;;;;;4278714;33;20183;-76
2023/08/16 02:42:30;;;;;;;5.85;4.45;;;;;;;;;;4280694;33;21010;-75
2023/08/16 02:44:56;;;;;;;8.75;5.30;;;;;;;;;;4260811;33;20121;-76
2023/08/16 02:47:22;;;;;;;14.93;4.45;;;;;;;;;;4266372;33;20054;-76
2023/08/16 02:49:48;;;;;;;6.62;4.57;;;;;;;;;;4266209;33;20127;-75
2023/08/16 02:52:14;;;;;;;11.50;4.55;;;;;;;;;;4263653;33;20505;-77
2023/08/16 02:54:41;;;;;;;10.27;4.80;;;;;;;;;;4265575;33;20045;-76
2023/08/16 02:57:07;;;;;;;10.88;4.82;;;;;;;;;;4266315;33;20232;-76
2023/08/16 02:59:40;;;;;;;6.72;4.47;;;;;;;;;;4266232;33;20046;-76
2023/08/16 03:02:07;;;;;;;12.98;5.28;;;;;;;;;;4262736;33;20403;-75
2023/08/16 03:04:33;;;;;;;22.90;4.45;;;;;;;;;;4266142;33;20448;-76
2023/08/16 03:06:59;;;;;;;12.25;6.10;;;;;;;;;;4279556;33;20045;-77
2023/08/16 03:09:25;;;;;;;7.65;5.28;;;;;;;;;;4280348;33;20041;-77
2023/08/16 03:11:51;;;;;;;9.30;4.55;;;;;;;;;;4278520;33;20472;-76
2023/08/16 03:14:17;;;;;;;13.27;5.35;;;;;;;;;;4263193;33;20045;-76
2023/08/16 03:16:44;;;;;;;7.22;4.12;;;;;;;;;;4287104;33;20981;-76
2023/08/16 03:19:10;;;;;;;11.65;4.80;;;;;;;;;;4307844;33;20100;-77
2023/08/16 03:21:36;;;;;;;5.32;4.82;;;;;;;;;;4293582;33;20440;-80
2023/08/16 03:24:03;;;;;;;17.35;5.72;;;;;;;;;;4306537;33;20089;-79
2023/08/16 03:26:29;;;;;;;12.77;5.35;;;;;;;;;;4308799;33;20052;-81
2023/08/16 03:28:55;;;;;;;8.80;5.85;;;;;;;;;;4288779;33;20551;-81
2023/08/16 03:31:22;;;;;;;15.05;6.05;;;;;;;;;;4294287;33;20471;-80
2023/08/16 03:33:48;;;;;;;9.95;5.72;;;;;;;;;;4294453;33;20131;-81
2023/08/16 03:36:15;;;;;;;9.30;5.12;;;;;;;;;;4301403;33;20046;-80
2023/08/16 03:38:41;;;;;;;22.60;5.45;;;;;;;;;;4293827;33;20069;-81
2023/08/16 03:41:07;;;;;;;11.18;5.97;;;;;;;;;;4294333;33;20102;-80
2023/08/16 03:43:36;;;;;;;11.43;5.12;;;;;;;;;;4295598;33;20057;-80
2023/08/16 03:46:03;;;;;;;22.92;5.20;;;;;;;;;;4278596;33;20033;-79
2023/08/16 03:48:29;;;;;;;12.63;7.03;;;;;;;;;;4270125;33;20042;-80
2023/08/16 03:50:55;;;;;;;7.55;5.28;;;;;;;;;;4264549;33;20075;-79
2023/08/16 03:53:22;;;;;;;11.32;5.75;;;;;;;;;;4265547;33;20462;-80
2023/08/16 03:55:55;;;;;;;11.32;5.25;;;;;;;;;;4274836;33;20041;-80
2023/08/16 03:58:21;;;;;;;13.48;5.07;;;;;;;;;;4263068;33;20026;-79
2023/08/16 04:00:48;;;;;;;9.45;5.43;;;;;;;;;;4264008;33;20108;-81
2023/08/16 04:03:14;;;;;;;11.32;5.75;;;;;;;;;;4268548;33;20045;-81
2023/08/16 04:05:40;;;;;;;16.08;5.45;;;;;;;;;;4265441;33;20049;-81
2023/08/16 04:08:06;;;;;;;10.88;4.95;;;;;;;;;;4254336;33;20077;-81
2023/08/16 04:10:35;;;;;;;12.98;5.30;;;;;;;;;;4249665;33;20065;-79
2023/08/16 04:13:02;;;;;;;14.55;5.35;;;;;;;;;;4251677;33;20043;-81
2023/08/16 04:15:28;;;;;;;6.03;5.12;;;;;;;;;;4265775;33;20038;-82
2023/08/16 04:18:01;;;;;;;13.38;5.75;;;;;;;;;;4290143;33;20041;-81
2023/08/16 04:20:28;;;;;;;8.80;5.87;;;;;;;;;;4293542;33;20075;-81
2023/08/16 04:22:54;;;;;;;11.40;5.35;;;;;;;;;;4292643;33;20033;-80
2023/08/16 04:25:20;;;;;;;8.18;5.10;;;;;;;;;;4294650;33;20463;-81
2023/08/16 04:27:46;;;;;;;8.20;6.35;;;;;;;;;;4294921;33;20055;-80
2023/08/16 04:30:19;;;;;;;19.52;5.28;;;;;;;;;;4294764;33;20048;-81
2023/08/16 04:32:45;;;;;;;12.85;5.82;;;;;;;;;;4292182;33;20062;-80
2023/08/16 04:35:11;;;;;;;8.43;5.75;;;;;;;;;;4305382;33;20072;-82
2023/08/16 04:37:38;;;;;;;9.57;5.70;;;;;;;;;;4308440;33;20421;-81
2023/08/16 04:40:07;;;;;;;10.88;5.47;;;;;;;;;;4302071;33;20460;-82
2023/08/16 04:42:34;;;;;;;16.90;6.60;;;;;;;;;;4308311;33;20453;-80
2023/08/16 04:45:03;;;;;;;9.25;6.20;;;;;;;;;;4307676;33;20050;-82
2023/08/16 04:47:36;;;;;;;7.15;5.82;;;;;;;;;;4310473;33;20055;-82
2023/08/16 04:50:06;;;;;;;22.95;5.90;;;;;;;;;;4310324;33;20087;-81
2023/08/16 04:52:32;;;;;;;13.50;5.70;;;;;;;;;;4308904;33;20041;-79
2023/08/16 04:54:59;;;;;;;10.13;5.85;;;;;;;;;;4310323;33;20060;-83
2023/08/16 04:57:25;;;;;;;12.57;5.57;;;;;;;;;;4324992;33;20048;-82
2023/08/16 04:59:51;;;;;;;8.48;6.22;;;;;;;;;;4312167;33;20040;-80
2023/08/16 05:02:17;;;;;;;9.63;5.03;;;;;;;;;;4315572;33;20151;-80
2023/08/16 05:04:44;;;;;;;8.60;4.82;;;;;;;;;;4308984;33;20133;-79
2023/08/16 05:07:11;;;;;;;6.65;5.00;;;;;;;;;;4298446;33;20067;-80
2023/08/16 05:09:37;;;;;;;11.30;5.80;;;;;;;;;;4297904;33;20084;-81
2023/08/16 05:12:04;;;;;;;12.68;5.22;;;;;;;;;;4298065;33;20049;-81
2023/08/16 05:14:30;;;;;;;13.98;6.18;;;;;;;;;;4299486;33;20399;-80
2023/08/16 05:16:56;;;;;;;10.43;6.03;;;;;;;;;;4311543;33;20108;-81
2023/08/16 05:19:22;;;;;;;11.10;5.32;;;;;;;;;;4309703;33;20104;-79
2023/08/16 05:21:50;;;;;;;6.95;5.70;;;;;;;;;;4311348;33;20100;-81
2023/08/16 05:24:16;;;;;;;6.70;5.65;;;;;;;;;;4308547;33;20097;-78
2023/08/16 05:26:42;;;;;;;8.30;4.85;;;;;;;;;;4307775;33;20065;-79
2023/08/16 05:29:08;;;;;;;8.48;6.12;;;;;;;;;;4279895;33;20433;-79
2023/08/16 05:31:34;;;;;;;14.57;6.50;;;;;;;;;;4276041;33;20056;-80
2023/08/16 05:34:01;;;;;;;10.48;5.25;;;;;;;;;;4274173;33;20085;-76
2023/08/16 05:36:28;;;;;;;18.52;6.40;;;;;;;;;;4272144;33;20121;-75
2023/08/16 05:38:54;;;;;;;10.30;5.35;;;;;;;;;;4269581;33;20063;-75
2023/08/16 05:41:20;;;;;;;13.75;5.43;;;;;;;;;;4274393;33;20077;-75
2023/08/16 05:43:46;;;;;;;26.33;6.05;;;;;;;;;;4268593;33;20064;-75
2023/08/16 05:46:12;;;;;;;14.15;5.82;;;;;;;;;;4265098;33;20030;-75
2023/08/16 05:48:38;;;;;;;19.12;7.12;;;;;;;;;;4269968;33;21104;-76
2023/08/16 05:51:04;;;;;;;22.00;6.07;;;;;;;;;;4278367;33;20041;-74
2023/08/16 05:53:31;;;;;;;13.50;6.00;;;;;;;;;;4280872;33;20774;-75
2023/08/16 05:55:57;;;;;;;18.08;5.85;;;;;;;;;;4281277;33;20053;-77
2023/08/16 05:58:23;;;;;;;17.12;5.65;;;;;;;;;;4280223;33;20051;-75
2023/08/16 06:00:51;;;;;;;11.43;5.53;;;;;;;;;;4307294;33;20439;-75
2023/08/16 06:03:17;;;;;;;12.50;5.72;;;;;;;;;;4324696;33;20462;-75
2023/08/16 06:05:43;;;;;;;16.30;5.97;;;;;;;;;;4310255;33;20108;-76
2023/08/16 06:08:10;;;;;;;16.02;6.10;;;;;;;;;;4308722;33;20538;-76
2023/08/16 06:10:36;;;;;;;20.60;6.03;;;;;;;;;;4290958;33;20498;-75
2023/08/16 06:13:02;;;;;;;26.30;5.60;;;;;;;;;;4304589;33;20950;-76
2023/08/16 06:15:28;;;;;;;9.30;6.22;;;;;;;;;;4306120;33;20059;-75
2023/08/16 06:17:54;;;;;;;13.27;5.28;;;;;;;;;;4281804;33;20053;-75
2023/08/16 06:20:21;;;;;;;11.23;5.22;;;;;;;;;;4279719;33;20064;-75
2023/08/16 06:22:47;;;;;;;11.75;5.47;;;;;;;;;;4277277;33;20038;-75
2023/08/16 06:25:13;;;;;;;14.55;4.85;;;;;;;;;;4271450;33;20054;-74
2023/08/16 06:27:40;;;;;;;27.30;5.20;;;;;;;;;;4265998;33;20053;-76
2023/08/16 06:30:06;;;;;;;12.82;5.10;;;;;;;;;;4267756;33;20037;-75
2023/08/16 06:32:32;;;;;;;34.05;8.50;;;;;;;;;;4275717;33;20072;-77
2023/08/16 06:34:59;;;;;;;12.75;5.35;;;;;;;;;;4265750;33;20075;-76
2023/08/16 06:37:25;;;;;;;22.50;5.95;;;;;;;;;;4303245;33;20060;-76
2023/08/16 06:39:57;;;;;;;17.27;5.78;;;;;;;;;;4310396;33;20092;-76
2023/08/16 06:42:24;;;;;;;25.92;6.03;;;;;;;;;;4309725;33;20066;-78
2023/08/16 06:44:49;;;;;;;17.25;8.00;;;;;;;;;;4319313;33;20056;-77
2023/08/16 06:47:16;;;;;;;26.02;5.12;;;;;;;;;;4323690;33;20078;-77
2023/08/16 06:49:42;;;;;;;12.18;5.20;;;;;;;;;;4324149;33;20070;-77
2023/08/16 06:52:08;;;;;;;17.33;5.30;;;;;;;;;;4324633;33;20063;-77
2023/08/16 06:54:35;;;;;;;17.45;6.18;;;;;;;;;;4324403;33;20087;-76
2023/08/16 06:57:01;;;;;;;16.52;5.45;;;;;;;;;;4323056;33;20066;-77
2023/08/16 06:59:28;;;;;;;11.40;5.75;;;;;;;;;;4315105;33;20037;-78
2023/08/16 07:01:54;;;;;;;12.18;5.05;;;;;;;;;;4317858;33;20240;-77
2023/08/16 07:04:20;;;;;;;12.60;5.72;;;;;;;;;;4326349;33;20072;-77
2023/08/16 07:06:46;;;;;;;12.02;5.05;;;;;;;;;;4323320;33;20051;-76
2023/08/16 07:09:13;;;;;;;16.92;4.53;;;;;;;;;;4325802;33;20060;-77
2023/08/16 07:11:39;;;;;;;17.83;5.97;;;;;;;;;;4325856;33;20044;-76
2023/08/16 07:14:05;;;;;;;12.50;4.12;;;;;;;;;;4281088;33;20034;-75
2023/08/16 07:16:33;;;;;;;10.18;4.62;;;;;;;;;;4278653;33;20078;-76
2023/08/16 07:18:59;;;;;;;14.87;5.03;;;;;;;;;;4277601;33;20112;-76
2023/08/16 07:21:26;;;;;;;13.07;6.07;;;;;;;;;;4280572;33;20041;-75
2023/08/16 07:23:52;;;;;;;8.20;4.43;;;;;;;;;;4278728;33;20087;-76
2023/08/16 07:26:18;;;;;;;16.23;4.82;;;;;;;;;;4279509;33;20060;-76
2023/08/16 07:28:44;;;;;;;13.32;4.20;;;;;;;;;;4275122;33;20456;-76
2023/08/16 07:31:10;;;;;;;28.77;4.60;;;;;;;;;;4277661;33;20064;-76
2023/08/16 07:33:36;;;;;;;8.20;5.75;;;;;;;;;;4279710;33;20058;-76
2023/08/16 07:36:03;;;;;;;8.93;4.35;;;;;;;;;;4279436;33;20067;-77
2023/08/16 07:38:30;;;;;;;6.20;4.87;;;;;;;;;;4278788;33;20091;-75
2023/08/16 07:40:56;;;;;;;22.60;5.82;;;;;;;;;;4276490;33;20037;-76
2023/08/16 07:43:22;;;;;;;6.78;4.43;;;;;;;;;;4278789;33;20045;-76
2023/08/16 07:45:52;;;;;;;17.55;4.45;;;;;;;;;;4302092;33;20053;-76
2023/08/16 07:48:18;;;;;;;11.23;4.03;;;;;;;;;;4310893;33;20096;-77
2023/08/16 07:50:45;;;;;;;10.65;4.50;;;;;;;;;;4307994;33;20092;-78
2023/08/16 07:53:12;;;;;;;12.30;5.35;;;;;;;;;;4311015;33;20087;-79
2023/08/16 07:55:38;;;;;;;11.23;4.70;;;;;;;;;;4322837;33;20052;-79
2023/08/16 07:58:04;;;;;;;5.62;3.85;;;;;;;;;;4326286;33;20062;-79
2023/08/16 08:00:31;;;;;;;8.98;4.70;;;;;;;;;;4324338;33;20045;-79
2023/08/16 08:02:57;;;;;;;9.57;4.03;;;;;;;;;;4325068;33;20145;-76
2023/08/16 08:05:26;;;;;;;6.95;4.35;;;;;;;;;;4323976;33;20400;-79
2023/08/16 08:07:53;;;;;;;7.75;4.43;;;;;;;;;;4336942;33;20426;-78
2023/08/16 08:10:19;;;;;;;5.93;3.80;;;;;;;;;;4338173;33;20048;-79
2023/08/16 08:12:45;;;;;;;12.40;6.87;;;;;;;;;;4324162;33;20103;-79
2023/08/16 08:15:11;;;;;;;15.07;4.47;;;;;;;;;;4321221;33;20040;-78
2023/08/16 08:17:38;;;;;;;7.32;4.57;;;;;;;;;;4317143;33;20249;-78
2023/08/16 08:20:04;;;;;;;18.02;4.78;;;;;;;;;;4328313;33;20525;-78
2023/08/16 08:22:30;;;;;;;4.87;4.37;;;;;;;;;;4326037;33;20048;-79
2023/08/16 08:24:57;;;;;;;11.18;3.75;;;;;;;;;;4325142;33;20509;-78
2023/08/16 08:27:23;;;;;;;4.68;4.28;;;;;;;;;;4324363;33;20066;-77
2023/08/16 08:29:49;;;;;;;5.00;4.35;;;;;;;;;;4325035;33;20342;-79
2023/08/16 08:32:17;;;;;;;10.02;4.40;;;;;;;;;;4326006;33;20467;-80
2023/08/16 08:34:43;;;;;;;11.85;4.12;;;;;;;;;;4326371;33;20128;-78
2023/08/16 08:37:09;;;;;;;11.38;4.97;;;;;;;;;;4324693;33;20067;-79
2023/08/16 08:39:36;;;;;;;7.82;4.10;;;;;;;;;;4313919;33;20071;-75
2023/08/16 08:42:02;;;;;;;5.93;4.12;;;;;;;;;;4312310;33;20044;-78
2023/08/16 08:44:30;;;;;;;9.00;3.90;;;;;;;;;;4313585;33;20439;-78
2023/08/16 08:46:56;;;;;;;18.37;4.32;;;;;;;;;;4314675;33;20048;-76
2023/08/16 08:49:23;;;;;;;15.35;3.97;;;;;;;;;;4313473;33;20075;-81
2023/08/16 08:51:49;;;;;;;6.90;3.90;;;;;;;;;;4310691;33;20079;-77
2023/08/16 08:54:15;;;;;;;13.27;3.60;;;;;;;;;;4314437;33;20056;-79
2023/08/16 08:56:42;;;;;;;10.93;4.30;;;;;;;;;;4316415;33;20832;-78
2023/08/16 08:59:11;;;;;;;11.07;3.60;;;;;;;;;;4313106;33;20096;-77
2023/08/16 09:01:37;;;;;;;14.15;4.28;;;;;;;;;;4311193;33;20074;-76
2023/08/16 09:04:04;;;;;;;5.97;4.40;;;;;;;;;;4312487;33;20084;-77
2023/08/16 09:06:30;;;;;;;12.25;4.37;;;;;;;;;;4310836;33;20477;-77
2023/08/16 09:08:57;;;;;;;10.73;5.30;;;;;;;;;;4310695;33;20436;-76
2023/08/16 09:11:24;;;;;;;19.00;4.43;;;;;;;;;;4309559;33;20063;-77
2023/08/16 09:13:51;;;;;;;14.55;4.90;;;;;;;;;;4309854;33;20503;-77
2023/08/16 09:16:17;;;;;;;5.57;5.05;;;;;;;;;;4309331;33;20239;-76
2023/08/16 09:18:50;;;;;;;9.50;4.70;;;;;;;;;;4310803;33;20187;-77
2023/08/16 09:21:18;;;;;;;7.07;3.85;;;;;;;;;;4308597;33;20437;-77
2023/08/16 09:23:45;;;;;;;6.87;4.62;;;;;;;;;;4308549;33;20049;-76
2023/08/16 09:26:15;;;;;;;8.40;4.47;;;;;;;;;;4308593;33;20029;-79
2023/08/16 09:28:41;;;;;;;4.85;4.43;;;;;;;;;;4309926;33;20091;-76
2023/08/16 09:31:07;;;;;;;9.45;4.72;;;;;;;;;;4309420;33;20028;-77
2023/08/16 09:33:34;;;;;;;11.93;4.60;;;;;;;;;;4314742;33;20548;-77
2023/08/16 09:36:01;;;;;;;7.75;4.45;;;;;;;;;;4293654;33;20048;-79
2023/08/16 09:38:27;;;;;;;11.77;4.05;;;;;;;;;;4293278;33;20055;-78
2023/08/16 09:40:53;;;;;;;12.82;5.03;;;;;;;;;;4291724;33;20053;-78
2023/08/16 09:43:20;;;;;;;9.93;3.92;;;;;;;;;;4294971;33;20216;-78
2023/08/16 09:45:48;;;;;;;4.90;4.57;;;;;;;;;;4286293;33;20042;-79
2023/08/16 09:48:14;;;;;;;8.20;4.62;;;;;;;;;;4300530;33;20049;-77
2023/08/16 09:50:40;;;;;;;4.55;4.10;;;;;;;;;;4293633;33;20045;-77
2023/08/16 09:53:07;;;;;;;12.10;3.87;;;;;;;;;;4295284;33;20079;-77
2023/08/16 09:55:33;;;;;;;12.10;4.47;;;;;;;;;;4294914;33;20049;-78
2023/08/16 09:58:00;;;;;;;13.55;4.45;;;;;;;;;;4295297;33;20045;-78
2023/08/16 10:00:27;;;;;;;6.68;3.70;;;;;;;;;;4279720;33;20041;-78
2023/08/16 10:02:54;;;;;;;15.68;4.05;;;;;;;;;;4278123;33;20063;-77
2023/08/16 10:05:21;;;;;;;4.68;4.22;;;;;;;;;;4280206;33;20037;-78
2023/08/16 10:07:50;;;;;;;7.57;3.85;;;;;;;;;;4291683;33;20464;-78
2023/08/16 10:10:17;;;;;;;4.85;3.95;;;;;;;;;;4294100;33;20049;-79
2023/08/16 10:12:45;;;;;;;5.28;4.78;;;;;;;;;;4293626;33;20049;-78
2023/08/16 10:15:11;;;;;;;10.02;4.07;;;;;;;;;;4294280;33;20033;-78
2023/08/16 10:17:38;;;;;;;13.35;4.55;;;;;;;;;;4294244;33;20068;-79
2023/08/16 10:20:07;;;;;;;4.05;3.62;;;;;;;;;;4282940;33;20037;-78
2023/08/16 10:22:37;;;;;;;7.85;4.40;;;;;;;;;;4267357;33;20042;-79
2023/08/16 10:25:17;;;;;;;9.50;3.47;;;;;;;;;;4264240;33;20071;-79
2023/08/16 10:27:44;;;;;;;12.77;3.72;;;;;;;;;;4264935;33;20099;-79
2023/08/16 10:30:18;;;;;;;7.32;3.90;;;;;;;;;;4265725;33;20075;-79
2023/08/16 10:32:45;;;;;;;5.90;3.87;;;;;;;;;;4292499;33;20059;-79
2023/08/16 10:35:12;;;;;;;13.35;4.40;;;;;;;;;;4292566;33;20067;-77
2023/08/16 10:37:39;;;;;;;11.32;4.43;;;;;;;;;;4293406;33;20063;-78
2023/08/16 10:40:14;;;;;;;12.25;4.35;;;;;;;;;;4294644;33;20379;-79
2023/08/16 10:42:53;;;;;;;6.03;4.32;;;;;;;;;;4285406;33;20058;-79
2023/08/16 10:45:27;;;;;;;19.08;4.43;;;;;;;;;;4271570;33;20049;-79
2023/08/16 10:47:54;;;;;;;19.17;4.25;;;;;;;;;;4274483;33;20053;-79
2023/08/16 10:50:20;;;;;;;6.60;4.62;;;;;;;;;;4273627;33;20097;-78
2023/08/16 10:52:46;;;;;;;7.68;3.62;;;;;;;;;;4276779;33;20071;-79
2023/08/16 10:55:12;;;;;;;6.85;4.85;;;;;;;;;;4278858;33;20047;-77
2023/08/16 10:57:48;;;;;;;18.15;4.87;;;;;;;;;;4278707;33;20052;-78
2023/08/16 11:03:20;;;;;;;7.05;5.15;;;;;;;;;;4276971;33;20206;-78
2023/08/16 11:05:48;;;;;;;6.22;4.90;;;;;;;;;;4292559;33;20072;-77
2023/08/16 11:08:15;;;;;;;8.55;5.03;;;;;;;;;;4279957;33;20056;-77
2023/08/16 11:10:41;;;;;;;5.90;4.75;;;;;;;;;;4294174;33;20042;-76
2023/08/16 11:13:09;;;;;;;7.90;5.18;;;;;;;;;;4292740;33;20530;-78
2023/08/16 11:15:35;;;;;;;15.10;4.75;;;;;;;;;;4293734;33;20053;-77
2023/08/16 11:18:01;;;;;;;7.37;5.57;;;;;;;;;;4292419;33;20028;-78
2023/08/16 11:20:29;;;;;;;7.30;4.32;;;;;;;;;;4294172;33;20317;-77
2023/08/16 11:22:57;;;;;;;11.88;4.75;;;;;;;;;;4292764;33;20055;-77
2023/08/16 11:25:29;;;;;;;5.85;5.25;;;;;;;;;;4289438;33;20076;-77
2023/08/16 11:27:59;;;;;;;9.32;5.93;;;;;;;;;;4277982;33;20045;-77
2023/08/16 11:30:25;;;;;;;9.57;4.55;;;;;;;;;;4278549;33;20324;-77
2023/08/16 11:32:51;;;;;;;15.85;4.60;;;;;;;;;;4281752;33;20414;-77
2023/08/16 11:35:17;;;;;;;7.65;4.97;;;;;;;;;;4283347;33;20096;-77
2023/08/16 11:37:43;;;;;;;13.00;5.20;;;;;;;;;;4280968;33;20504;-77
2023/08/16 11:40:10;;;;;;;7.55;4.37;;;;;;;;;;4281015;33;20360;-78
2023/08/16 11:42:36;;;;;;;7.50;4.82;;;;;;;;;;4281886;33;20079;-77
2023/08/16 11:45:19;;;;;;;9.65;5.45;;;;;;;;;;4283808;33;20108;-76
2023/08/16 11:47:49;;;;;;;5.35;4.85;;;;;;;;;;4281089;33;20064;-79
2023/08/16 11:50:15;;;;;;;15.07;4.90;;;;;;;;;;4280612;33;20066;-76
2023/08/16 11:53:01;;;;;;;9.68;5.03;;;;;;;;;;4268216;33;20139;-77
2023/08/16 11:55:30;;;;;;;12.23;5.10;;;;;;;;;;4267462;33;20046;-77
2023/08/16 11:58:08;;;;;;;5.18;4.68;;;;;;;;;;4271941;33;20893;-76
2023/08/16 12:00:38;;;;;;;12.37;5.10;;;;;;;;;;4269446;33;20087;-77
2023/08/16 12:03:06;;;;;;;14.55;5.62;;;;;;;;;;4275933;33;20113;-77
2023/08/16 12:05:36;;;;;;;20.98;6.40;;;;;;;;;;4280185;33;20065;-77
2023/08/16 12:08:05;;;;;;;7.23;5.73;;;;;;;;;;4280633;33;20428;-77
2023/08/16 12:10:54;;;;;;;13.35;5.70;;;;;;;;;;4280362;33;20536;-78
2023/08/16 12:13:21;;;;;;;5.85;4.62;;;;;;;;;;4280873;33;20416;-76
2023/08/16 12:15:48;;;;;;;9.27;4.65;;;;;;;;;;4281351;33;20095;-77
2023/08/16 12:18:17;;;;;;;11.85;5.30;;;;;;;;;;4281911;33;20037;-77
2023/08/16 12:20:49;;;;;;;12.00;5.40;;;;;;;;;;4276866;33;20052;-78
2023/08/16 12:23:21;;;;;;;6.12;4.95;;;;;;;;;;4280181;33;20037;-78
2023/08/16 12:25:48;;;;;;;4.95;4.60;;;;;;;;;;4278599;33;20064;-78
2023/08/16 12:28:14;;;;;;;6.87;5.78;;;;;;;;;;4280830;33;20489;-77
2023/08/16 12:30:40;;;;;;;10.68;4.40;;;;;;;;;;4281059;33;20063;-79
2023/08/16 12:33:09;;;;;;;14.18;4.72;;;;;;;;;;4276163;33;20126;-78
2023/08/16 12:35:42;;;;;;;13.77;5.60;;;;;;;;;;4273714;33;21008;-77
2023/08/16 12:38:08;;;;;;;15.45;5.37;;;;;;;;;;4285588;33;20379;-76
2023/08/16 12:40:34;;;;;;;5.32;4.37;;;;;;;;;;4287581;33;20521;-77
2023/08/16 12:43:01;;;;;;;8.15;4.50;;;;;;;;;;4284276;33;20049;-76
2023/08/16 12:45:28;;;;;;;12.55;5.60;;;;;;;;;;4283729;33;20463;-78
2023/08/16 12:47:54;;;;;;;5.70;5.10;;;;;;;;;;4283821;33;20061;-76
2023/08/16 12:50:20;;;;;;;8.65;4.18;;;;;;;;;;4283154;33;20041;-76
2023/08/16 12:52:46;;;;;;;4.97;4.47;;;;;;;;;;4258672;33;20059;-78
2023/08/16 12:55:12;;;;;;;6.60;4.57;;;;;;;;;;4250665;33;20082;-77
2023/08/16 12:57:38;;;;;;;7.70;4.57;;;;;;;;;;4238127;33;20113;-75
2023/08/16 13:00:06;;;;;;;7.22;4.80;;;;;;;;;;4238881;33;20606;-78
2023/08/16 13:02:39;;;;;;;4.62;4.22;;;;;;;;;;4236461;33;20062;-77
2023/08/16 13:05:07;;;;;;;9.75;4.53;;;;;;;;;;4249721;33;20042;-78
2023/08/16 13:07:36;;;;;;;8.15;4.47;;;;;;;;;;4252418;33;20212;-78
2023/08/16 13:10:04;;;;;;;13.80;5.05;;;;;;;;;;4252407;33;20077;-76
2023/08/16 13:12:30;;;;;;;12.73;5.47;;;;;;;;;;4250203;33;20415;-77
2023/08/16 13:14:57;;;;;;;16.77;4.30;;;;;;;;;;4248515;33;20453;-77
2023/08/16 13:17:23;;;;;;;5.03;4.57;;;;;;;;;;4247074;33;20204;-77
2023/08/16 13:19:49;;;;;;;6.45;4.40;;;;;;;;;;4251475;33;20050;-76
2023/08/16 13:22:15;;;;;;;8.93;5.50;;;;;;;;;;4251484;33;20369;-76
2023/08/16 13:24:41;;;;;;;5.10;4.62;;;;;;;;;;4276426;33;20034;-76
2023/08/16 13:27:08;;;;;;;5.30;4.53;;;;;;;;;;4281033;33;20071;-77
2023/08/16 13:29:34;;;;;;;5.18;4.78;;;;;;;;;;4291546;33;20154;-75
2023/08/16 13:32:00;;;;;;;9.20;4.60;;;;;;;;;;4300339;33;20068;-76
2023/08/16 13:34:26;;;;;;;4.90;4.35;;;;;;;;;;4299183;33;20050;-78
2023/08/16 13:36:52;;;;;;;9.65;4.93;;;;;;;;;;4281466;33;20049;-76
2023/08/16 13:39:18;;;;;;;4.93;4.30;;;;;;;;;;4266154;33;20033;-77
2023/08/16 13:41:51;;;;;;;7.95;4.82;;;;;;;;;;4267196;33;20067;-77
2023/08/16 13:44:26;;;;;;;5.10;4.55;;;;;;;;;;4269408;33;20422;-78
2023/08/16 13:46:52;;;;;;;5.65;4.62;;;;;;;;;;4268416;33;20046;-77
2023/08/16 13:49:18;;;;;;;6.87;4.80;;;;;;;;;;4267801;33;20063;-76
2023/08/16 13:51:44;;;;;;;11.68;5.00;;;;;;;;;;4262881;33;20033;-77
2023/08/16 13:54:10;;;;;;;5.10;4.15;;;;;;;;;;4267723;33;20111;-76
2023/08/16 13:56:36;;;;;;;8.20;4.95;;;;;;;;;;4268905;33;20435;-78
2023/08/16 13:59:04;;;;;;;9.55;5.37;;;;;;;;;;4269180;33;20212;-78
2023/08/16 14:01:30;;;;;;;4.57;4.18;;;;;;;;;;4267652;33;20092;-79
2023/08/16 14:03:59;;;;;;;7.12;4.75;;;;;;;;;;4257280;33;20216;-78
2023/08/16 14:06:25;;;;;;;6.53;4.75;;;;;;;;;;4264475;33;20033;-78
2023/08/16 14:08:51;;;;;;;5.37;4.50;;;;;;;;;;4258613;33;20053;-78
2023/08/16 14:11:18;;;;;;;5.15;4.68;;;;;;;;;;4259772;33;20059;-79
2023/08/16 14:13:44;;;;;;;15.25;4.70;;;;;;;;;;4260732;33;20045;-78
2023/08/16 14:16:10;;;;;;;6.80;4.43;;;;;;;;;;4258479;33;20065;-77
2023/08/16 14:18:37;;;;;;;9.23;4.95;;;;;;;;;;4255673;33;20067;-78
2023/08/16 14:21:03;;;;;;;12.18;4.78;;;;;;;;;;4262042;33;20085;-77
2023/08/16 14:23:30;;;;;;;8.00;4.43;;;;;;;;;;4260747;33;20127;-78
2023/08/16 14:25:56;;;;;;;8.93;4.55;;;;;;;;;;4260303;33;20085;-78
2023/08/16 14:28:22;;;;;;;11.60;5.45;;;;;;;;;;4262281;33;20434;-78
2023/08/16 14:30:48;;;;;;;15.80;6.10;;;;;;;;;;4261134;33;20045;-78
2023/08/16 14:33:16;;;;;;;11.40;5.40;;;;;;;;;;4260938;33;20068;-78
2023/08/16 14:35:42;;;;;;;6.72;5.22;;;;;;;;;;4257494;33;20339;-77
2023/08/16 14:38:11;;;;;;;11.23;4.78;;;;;;;;;;4257819;33;20045;-78
2023/08/16 14:40:38;;;;;;;8.20;5.40;;;;;;;;;;4258590;33;20289;-77
2023/08/16 14:43:04;;;;;;;8.07;4.60;;;;;;;;;;4261402;33;20207;-78
2023/08/16 14:45:30;;;;;;;6.25;4.70;;;;;;;;;;4261725;33;20085;-77
2023/08/16 14:47:56;;;;;;;7.85;4.55;;;;;;;;;;4264826;33;20050;-77
2023/08/16 14:50:23;;;;;;;6.60;4.75;;;;;;;;;;4277866;33;20075;-79
2023/08/16 14:52:50;;;;;;;9.93;5.82;;;;;;;;;;4275582;33;20072;-79
2023/08/16 14:55:16;;;;;;;9.95;5.93;;;;;;;;;;4280203;33;20075;-79
2023/08/16 14:57:45;;;;;;;9.73;5.20;;;;;;;;;;4293176;33;20062;-79
2023/08/16 15:00:14;;;;;;;10.55;5.53;;;;;;;;;;4289568;33;20037;-78
2023/08/16 15:02:41;;;;;;;6.50;5.37;;;;;;;;;;4293898;33;20057;-78
2023/08/16 15:05:08;;;;;;;7.93;5.03;;;;;;;;;;4294520;33;20038;-79
2023/08/16 15:07:34;;;;;;;5.43;4.90;;;;;;;;;;4290907;33;20037;-79
2023/08/16 15:10:00;;;;;;;7.15;5.75;;;;;;;;;;4293329;33;20217;-78
2023/08/16 15:12:26;;;;;;;5.68;4.95;;;;;;;;;;4291122;33;20067;-77
2023/08/16 15:14:52;;;;;;;13.57;4.55;;;;;;;;;;4279995;33;20050;-78
2023/08/16 15:17:18;;;;;;;11.80;4.90;;;;;;;;;;4274910;33;20075;-78
2023/08/16 15:19:44;;;;;;;15.02;6.10;;;;;;;;;;4273809;33;20465;-78
2023/08/16 15:22:11;;;;;;;11.15;5.03;;;;;;;;;;4268438;33;20038;-78
2023/08/16 15:24:37;;;;;;;5.65;5.07;;;;;;;;;;4263342;33;20064;-78
2023/08/16 15:27:03;;;;;;;10.35;5.20;;;;;;;;;;4266061;33;20057;-78
2023/08/16 15:29:30;;;;;;;5.80;4.65;;;;;;;;;;4271225;33;20491;-78
2023/08/16 15:31:57;;;;;;;19.70;5.15;;;;;;;;;;4284230;33;20045;-78
2023/08/16 15:34:23;;;;;;;8.82;4.87;;;;;;;;;;4285521;33;20043;-79
2023/08/16 15:36:49;;;;;;;10.32;4.15;;;;;;;;;;4260460;33;20041;-79
2023/08/16 15:39:16;;;;;;;8.32;4.35;;;;;;;;;;4256822;33;20071;-77
2023/08/16 15:41:42;;;;;;;20.37;5.30;;;;;;;;;;4258751;33;20109;-75
2023/08/16 15:44:08;;;;;;;13.02;4.80;;;;;;;;;;4264000;33;20084;-77
2023/08/16 15:46:34;;;;;;;5.68;4.45;;;;;;;;;;4265340;33;20045;-76
2023/08/16 15:49:00;;;;;;;5.97;4.80;;;;;;;;;;4259867;33;20214;-76
2023/08/16 15:51:27;;;;;;;14.63;4.15;;;;;;;;;;4260385;33;20066;-77
2023/08/16 15:53:53;;;;;;;4.75;3.97;;;;;;;;;;4266053;33;20161;-77
2023/08/16 15:56:19;;;;;;;6.43;4.40;;;;;;;;;;4254492;33;20092;-75
2023/08/16 15:58:45;;;;;;;5.37;4.15;;;;;;;;;;4252376;33;20440;-76
2023/08/16 16:01:11;;;;;;;7.62;4.28;;;;;;;;;;4259748;33;20184;-76
2023/08/16 16:03:37;;;;;;;6.60;4.55;;;;;;;;;;4259518;33;20058;-75
2023/08/16 16:06:04;;;;;;;10.55;4.10;;;;;;;;;;4251542;33;20046;-78
2023/08/16 16:08:31;;;;;;;3.92;3.62;;;;;;;;;;4265901;33;20041;-77
2023/08/16 16:10:58;;;;;;;7.50;4.03;;;;;;;;;;4274466;33;20380;-78
2023/08/16 16:13:24;;;;;;;6.82;3.90;;;;;;;;;;4248245;33;20047;-77
2023/08/16 16:15:50;;;;;;;6.90;4.32;;;;;;;;;;4249676;33;20062;-77
2023/08/16 16:18:19;;;;;;;8.25;4.70;;;;;;;;;;4249839;33;20034;-76
2023/08/16 16:20:45;;;;;;;18.70;4.22;;;;;;;;;;4249679;33;20055;-75
2023/08/16 16:23:11;;;;;;;5.72;4.65;;;;;;;;;;4250810;33;20094;-76
2023/08/16 16:25:37;;;;;;;10.73;4.78;;;;;;;;;;4246280;33;20056;-76
2023/08/16 16:28:04;;;;;;;6.75;3.58;;;;;;;;;;4243262;33;20093;-76
2023/08/16 16:30:30;;;;;;;5.50;3.55;;;;;;;;;;4247424;33;20076;-76
2023/08/16 16:32:57;;;;;;;6.15;3.35;;;;;;;;;;4238001;33;20073;-77
2023/08/16 16:35:26;;;;;;;10.23;4.00;;;;;;;;;;4250580;33;20093;-77
2023/08/16 16:37:52;;;;;;;8.93;3.75;;;;;;;;;;4248666;33;20460;-75